CheckWX is a tool to help pilots better visualize weather data.  It is not intended as a substitute for an official pre-flight weather briefing.

09:11:28 UTC

FMNN METAR
Fascene Airport
Nosy Be, Madagascar
Current

11 mins ago

FMNN 170900Z 09002KT 9999 FEW020 28/20 Q1019
Observed
Jul-17 @ 09:00 UTC
Wind
  • 090° at 2 KTS
Visibility
10,000+ meters
Flight Rules
VFR
Cloud Levels
  • Few at 2,000' AGL
Temperature
28°C / 82°F
Dewpoint
20°C / 68°F
Heat Index
29°C / 85°F
Humidity
62%
Altimeter
30.09" Hg
Pressure
1018.92 hPa
Previous

1 hour ago

FMNN 170800Z 36004KT 9999 FEW020 28/20 Q1020
Observed
Jul-17 @ 08:00 UTC
Wind
  • 360° at 4 KTS
Visibility
10,000+ meters
Flight Rules
VFR
Cloud Levels
  • Few at 2,000' AGL
Temperature
28°C / 82°F
Dewpoint
20°C / 68°F
Heat Index
29°C / 85°F
Humidity
62%
Altimeter
30.12" Hg
Pressure
1019.92 hPa
Previous

3 hours ago

FMNN 170600Z 00000KT 9999 FEW020 28/20 Q1021
Observed
Jul-17 @ 06:00 UTC
Visibility
10,000+ meters
Flight Rules
VFR
Cloud Levels
  • Few at 2,000' AGL
Temperature
28°C / 82°F
Dewpoint
20°C / 68°F
Heat Index
29°C / 85°F
Humidity
62%
Altimeter
30.15" Hg
Pressure
1020.92 hPa